sensor_id;sensor_type;location;lat;lon;timestamp;P1;durP1;ratioP1;P2;durP2;ratioP2
35306;SDS011;21420;52.196;21.416;2023-11-19T00:01:34;44.90;;;30.20;;
35306;SDS011;21420;52.196;21.416;2023-11-19T00:04:01;45.80;;;29.90;;
35306;SDS011;21420;52.196;21.416;2023-11-19T00:06:28;43.70;;;28.80;;
35306;SDS011;21420;52.196;21.416;2023-11-19T00:08:55;43.70;;;28.70;;
35306;SDS011;21420;52.196;21.416;2023-11-19T00:11:27;39.70;;;27.50;;
35306;SDS011;21420;52.196;21.416;2023-11-19T00:13:54;44.30;;;29.50;;
35306;SDS011;21420;52.196;21.416;2023-11-19T00:16:20;43.90;;;29.00;;
35306;SDS011;21420;52.196;21.416;2023-11-19T00:18:47;43.50;;;29.40;;
35306;SDS011;21420;52.196;21.416;2023-11-19T00:21:16;44.60;;;28.10;;
35306;SDS011;21420;52.196;21.416;2023-11-19T00:23:42;40.90;;;27.00;;
35306;SDS011;21420;52.196;21.416;2023-11-19T00:26:09;42.30;;;28.00;;
35306;SDS011;21420;52.196;21.416;2023-11-19T00:28:38;38.40;;;25.90;;
35306;SDS011;21420;52.196;21.416;2023-11-19T00:31:05;47.20;;;28.80;;
35306;SDS011;21420;52.196;21.416;2023-11-19T00:33:32;39.00;;;27.20;;
35306;SDS011;21420;52.196;21.416;2023-11-19T00:35:59;37.50;;;26.20;;
35306;SDS011;21420;52.196;21.416;2023-11-19T00:38:25;35.30;;;24.40;;
35306;SDS011;21420;52.196;21.416;2023-11-19T00:40:52;38.90;;;26.20;;
35306;SDS011;21420;52.196;21.416;2023-11-19T00:43:19;40.10;;;25.00;;
35306;SDS011;21420;52.196;21.416;2023-11-19T00:45:48;38.90;;;26.10;;
35306;SDS011;21420;52.196;21.416;2023-11-19T00:48:17;38.70;;;25.60;;
35306;SDS011;21420;52.196;21.416;2023-11-19T00:50:44;43.00;;;28.10;;
35306;SDS011;21420;52.196;21.416;2023-11-19T00:53:12;43.80;;;28.70;;
35306;SDS011;21420;52.196;21.416;2023-11-19T00:55:38;42.50;;;27.20;;
35306;SDS011;21420;52.196;21.416;2023-11-19T00:58:12;43.70;;;28.20;;
35306;SDS011;21420;52.196;21.416;2023-11-19T01:00:39;39.70;;;27.00;;
35306;SDS011;21420;52.196;21.416;2023-11-19T01:03:06;43.00;;;28.30;;
35306;SDS011;21420;52.196;21.416;2023-11-19T01:05:33;67.50;;;42.50;;
35306;SDS011;21420;52.196;21.416;2023-11-19T01:08:01;43.30;;;29.20;;
35306;SDS011;21420;52.196;21.416;2023-11-19T01:10:27;48.30;;;30.40;;
35306;SDS011;21420;52.196;21.416;2023-11-19T01:12:55;48.60;;;32.00;;
35306;SDS011;21420;52.196;21.416;2023-11-19T01:15:22;44.80;;;28.50;;
35306;SDS011;21420;52.196;21.416;2023-11-19T01:17:49;47.90;;;31.50;;
35306;SDS011;21420;52.196;21.416;2023-11-19T01:20:19;51.10;;;30.50;;
35306;SDS011;21420;52.196;21.416;2023-11-19T01:22:47;46.40;;;30.30;;
35306;SDS011;21420;52.196;21.416;2023-11-19T01:25:16;42.60;;;27.70;;
35306;SDS011;21420;52.196;21.416;2023-11-19T01:27:43;44.40;;;29.70;;
35306;SDS011;21420;52.196;21.416;2023-11-19T01:30:10;43.30;;;28.30;;
35306;SDS011;21420;52.196;21.416;2023-11-19T01:32:40;43.40;;;28.10;;
35306;SDS011;21420;52.196;21.416;2023-11-19T01:35:07;43.30;;;29.20;;
35306;SDS011;21420;52.196;21.416;2023-11-19T01:37:37;45.90;;;30.30;;
35306;SDS011;21420;52.196;21.416;2023-11-19T01:40:04;45.20;;;29.10;;
35306;SDS011;21420;52.196;21.416;2023-11-19T01:42:39;48.20;;;31.00;;
35306;SDS011;21420;52.196;21.416;2023-11-19T01:45:07;46.40;;;30.40;;
35306;SDS011;21420;52.196;21.416;2023-11-19T01:47:36;54.00;;;33.70;;
35306;SDS011;21420;52.196;21.416;2023-11-19T01:50:05;47.20;;;31.60;;
35306;SDS011;21420;52.196;21.416;2023-11-19T01:52:34;48.90;;;29.50;;
35306;SDS011;21420;52.196;21.416;2023-11-19T01:55:06;50.70;;;30.70;;
35306;SDS011;21420;52.196;21.416;2023-11-19T01:57:36;47.20;;;30.80;;
35306;SDS011;21420;52.196;21.416;2023-11-19T02:00:07;47.90;;;30.30;;
35306;SDS011;21420;52.196;21.416;2023-11-19T02:02:43;48.10;;;31.20;;
35306;SDS011;21420;52.196;21.416;2023-11-19T02:05:11;49.50;;;31.50;;
35306;SDS011;21420;52.196;21.416;2023-11-19T02:07:39;45.60;;;30.70;;
35306;SDS011;21420;52.196;21.416;2023-11-19T02:10:06;48.70;;;29.60;;
35306;SDS011;21420;52.196;21.416;2023-11-19T02:12:34;45.80;;;29.30;;
35306;SDS011;21420;52.196;21.416;2023-11-19T02:15:02;46.30;;;29.70;;
35306;SDS011;21420;52.196;21.416;2023-11-19T02:17:30;50.60;;;30.70;;
35306;SDS011;21420;52.196;21.416;2023-11-19T02:20:04;50.60;;;30.70;;
35306;SDS011;21420;52.196;21.416;2023-11-19T02:22:38;52.20;;;31.70;;
35306;SDS011;21420;52.196;21.416;2023-11-19T02:25:07;55.50;;;31.70;;
35306;SDS011;21420;52.196;21.416;2023-11-19T02:30:22;57.30;;;33.10;;
35306;SDS011;21420;52.196;21.416;2023-11-19T02:32:56;57.90;;;31.80;;
35306;SDS011;21420;52.196;21.416;2023-11-19T02:35:25;58.60;;;34.10;;
35306;SDS011;21420;52.196;21.416;2023-11-19T02:37:58;56.80;;;33.30;;
35306;SDS011;21420;52.196;21.416;2023-11-19T02:40:30;59.30;;;33.10;;
35306;SDS011;21420;52.196;21.416;2023-11-19T02:42:57;66.50;;;35.00;;
35306;SDS011;21420;52.196;21.416;2023-11-19T02:45:25;66.20;;;33.80;;
35306;SDS011;21420;52.196;21.416;2023-11-19T02:47:54;62.90;;;34.20;;
35306;SDS011;21420;52.196;21.416;2023-11-19T02:50:21;64.20;;;34.60;;
35306;SDS011;21420;52.196;21.416;2023-11-19T02:52:53;65.20;;;36.70;;
35306;SDS011;21420;52.196;21.416;2023-11-19T02:55:23;59.50;;;35.50;;
35306;SDS011;21420;52.196;21.416;2023-11-19T02:57:51;62.30;;;35.50;;
35306;SDS011;21420;52.196;21.416;2023-11-19T03:00:20;63.90;;;36.50;;
35306;SDS011;21420;52.196;21.416;2023-11-19T03:02:58;70.00;;;36.80;;
35306;SDS011;21420;52.196;21.416;2023-11-19T03:05:26;64.40;;;35.50;;
35306;SDS011;21420;52.196;21.416;2023-11-19T03:07:56;69.70;;;36.80;;
35306;SDS011;21420;52.196;21.416;2023-11-19T03:10:24;59.90;;;35.20;;
35306;SDS011;21420;52.196;21.416;2023-11-19T03:12:50;67.90;;;36.70;;
35306;SDS011;21420;52.196;21.416;2023-11-19T03:15:17;72.60;;;37.40;;
35306;SDS011;21420;52.196;21.416;2023-11-19T03:18:05;67.50;;;36.40;;
35306;SDS011;21420;52.196;21.416;2023-11-19T03:20:32;70.90;;;37.50;;
35306;SDS011;21420;52.196;21.416;2023-11-19T03:22:59;76.40;;;40.30;;
35306;SDS011;21420;52.196;21.416;2023-11-19T03:25:28;72.00;;;37.00;;
35306;SDS011;21420;52.196;21.416;2023-11-19T03:28:00;71.30;;;38.60;;
35306;SDS011;21420;52.196;21.416;2023-11-19T03:30:29;72.20;;;39.20;;
35306;SDS011;21420;52.196;21.416;2023-11-19T03:33:00;74.10;;;39.00;;
35306;SDS011;21420;52.196;21.416;2023-11-19T03:35:28;71.90;;;38.40;;
35306;SDS011;21420;52.196;21.416;2023-11-19T03:37:56;69.80;;;38.50;;
35306;SDS011;21420;52.196;21.416;2023-11-19T03:40:23;71.20;;;37.20;;
35306;SDS011;21420;52.196;21.416;2023-11-19T03:42:52;76.40;;;41.60;;
35306;SDS011;21420;52.196;21.416;2023-11-19T03:45:19;75.00;;;39.30;;
35306;SDS011;21420;52.196;21.416;2023-11-19T03:47:46;68.50;;;37.60;;
35306;SDS011;21420;52.196;21.416;2023-11-19T03:50:12;73.00;;;38.50;;
35306;SDS011;21420;52.196;21.416;2023-11-19T03:52:42;66.70;;;36.70;;
35306;SDS011;21420;52.196;21.416;2023-11-19T03:55:10;79.90;;;39.80;;
35306;SDS011;21420;52.196;21.416;2023-11-19T03:57:39;74.90;;;39.80;;
35306;SDS011;21420;52.196;21.416;2023-11-19T04:00:06;71.70;;;38.70;;
35306;SDS011;21420;52.196;21.416;2023-11-19T04:02:40;73.60;;;39.10;;
35306;SDS011;21420;52.196;21.416;2023-11-19T04:05:07;70.60;;;41.00;;
35306;SDS011;21420;52.196;21.416;2023-11-19T04:07:34;71.10;;;38.60;;
35306;SDS011;21420;52.196;21.416;2023-11-19T04:10:00;77.20;;;41.30;;
35306;SDS011;21420;52.196;21.416;2023-11-19T04:12:29;74.00;;;38.70;;
35306;SDS011;21420;52.196;21.416;2023-11-19T04:14:56;70.90;;;37.80;;
35306;SDS011;21420;52.196;21.416;2023-11-19T04:17:26;73.10;;;41.40;;
35306;SDS011;21420;52.196;21.416;2023-11-19T04:19:54;70.50;;;37.50;;
35306;SDS011;21420;52.196;21.416;2023-11-19T04:22:22;68.50;;;36.90;;
35306;SDS011;21420;52.196;21.416;2023-11-19T04:24:50;71.40;;;37.00;;
35306;SDS011;21420;52.196;21.416;2023-11-19T04:27:17;63.90;;;35.60;;
35306;SDS011;21420;52.196;21.416;2023-11-19T04:29:44;63.80;;;35.50;;
35306;SDS011;21420;52.196;21.416;2023-11-19T04:32:12;74.90;;;37.70;;
35306;SDS011;21420;52.196;21.416;2023-11-19T04:34:39;71.80;;;36.30;;
35306;SDS011;21420;52.196;21.416;2023-11-19T04:37:05;67.90;;;36.10;;
35306;SDS011;21420;52.196;21.416;2023-11-19T04:39:35;68.40;;;35.80;;
35306;SDS011;21420;52.196;21.416;2023-11-19T04:42:03;74.50;;;38.70;;
35306;SDS011;21420;52.196;21.416;2023-11-19T04:44:30;68.50;;;36.10;;
35306;SDS011;21420;52.196;21.416;2023-11-19T04:46:57;71.00;;;38.10;;
35306;SDS011;21420;52.196;21.416;2023-11-19T04:49:24;67.60;;;38.10;;
35306;SDS011;21420;52.196;21.416;2023-11-19T04:51:54;77.10;;;37.80;;
35306;SDS011;21420;52.196;21.416;2023-11-19T04:54:21;69.30;;;36.70;;
35306;SDS011;21420;52.196;21.416;2023-11-19T04:56:47;69.50;;;37.10;;
35306;SDS011;21420;52.196;21.416;2023-11-19T04:59:15;75.20;;;37.80;;
35306;SDS011;21420;52.196;21.416;2023-11-19T05:01:46;66.60;;;36.60;;
35306;SDS011;21420;52.196;21.416;2023-11-19T05:04:13;68.40;;;35.90;;
35306;SDS011;21420;52.196;21.416;2023-11-19T05:06:41;77.10;;;42.90;;
35306;SDS011;21420;52.196;21.416;2023-11-19T05:09:08;71.10;;;38.60;;
35306;SDS011;21420;52.196;21.416;2023-11-19T05:11:35;71.10;;;38.20;;
35306;SDS011;21420;52.196;21.416;2023-11-19T05:14:02;71.40;;;36.60;;
35306;SDS011;21420;52.196;21.416;2023-11-19T05:16:32;70.40;;;34.30;;
35306;SDS011;21420;52.196;21.416;2023-11-19T05:18:59;75.90;;;37.20;;
35306;SDS011;21420;52.196;21.416;2023-11-19T05:21:26;72.50;;;35.20;;
35306;SDS011;21420;52.196;21.416;2023-11-19T05:23:53;67.40;;;36.10;;
35306;SDS011;21420;52.196;21.416;2023-11-19T05:26:21;67.60;;;33.80;;
35306;SDS011;21420;52.196;21.416;2023-11-19T05:28:49;70.50;;;34.70;;
35306;SDS011;21420;52.196;21.416;2023-11-19T05:31:17;75.50;;;36.80;;
35306;SDS011;21420;52.196;21.416;2023-11-19T05:33:45;66.90;;;36.80;;
35306;SDS011;21420;52.196;21.416;2023-11-19T05:36:12;68.00;;;35.20;;
35306;SDS011;21420;52.196;21.416;2023-11-19T05:38:39;70.10;;;37.50;;
35306;SDS011;21420;52.196;21.416;2023-11-19T05:41:06;70.00;;;37.20;;
35306;SDS011;21420;52.196;21.416;2023-11-19T05:43:33;71.00;;;36.30;;
35306;SDS011;21420;52.196;21.416;2023-11-19T05:46:00;75.50;;;37.30;;
35306;SDS011;21420;52.196;21.416;2023-11-19T05:48:28;74.20;;;36.00;;
35306;SDS011;21420;52.196;21.416;2023-11-19T05:50:55;71.20;;;37.50;;
35306;SDS011;21420;52.196;21.416;2023-11-19T05:53:22;71.60;;;37.60;;
35306;SDS011;21420;52.196;21.416;2023-11-19T05:55:49;67.60;;;36.90;;
35306;SDS011;21420;52.196;21.416;2023-11-19T05:58:24;74.40;;;38.90;;
35306;SDS011;21420;52.196;21.416;2023-11-19T06:00:52;71.40;;;36.50;;
35306;SDS011;21420;52.196;21.416;2023-11-19T06:03:19;64.70;;;34.30;;
35306;SDS011;21420;52.196;21.416;2023-11-19T06:05:48;63.70;;;34.30;;
35306;SDS011;21420;52.196;21.416;2023-11-19T06:08:15;58.60;;;32.30;;
35306;SDS011;21420;52.196;21.416;2023-11-19T06:10:43;59.20;;;33.40;;
35306;SDS011;21420;52.196;21.416;2023-11-19T06:13:13;59.70;;;31.80;;
35306;SDS011;21420;52.196;21.416;2023-11-19T06:15:42;58.50;;;31.50;;
35306;SDS011;21420;52.196;21.416;2023-11-19T06:18:09;59.40;;;31.60;;
35306;SDS011;21420;52.196;21.416;2023-11-19T06:20:38;58.80;;;33.80;;
35306;SDS011;21420;52.196;21.416;2023-11-19T06:23:07;57.50;;;32.30;;
35306;SDS011;21420;52.196;21.416;2023-11-19T06:25:35;57.40;;;31.90;;
35306;SDS011;21420;52.196;21.416;2023-11-19T06:28:02;56.00;;;31.50;;
35306;SDS011;21420;52.196;21.416;2023-11-19T06:30:30;56.60;;;31.50;;
35306;SDS011;21420;52.196;21.416;2023-11-19T06:32:59;58.60;;;31.40;;
35306;SDS011;21420;52.196;21.416;2023-11-19T06:35:26;103.80;;;57.60;;
35306;SDS011;21420;52.196;21.416;2023-11-19T06:37:55;164.00;;;98.10;;
35306;SDS011;21420;52.196;21.416;2023-11-19T06:40:22;98.50;;;55.80;;
35306;SDS011;21420;52.196;21.416;2023-11-19T06:42:49;96.40;;;54.30;;
35306;SDS011;21420;52.196;21.416;2023-11-19T06:45:19;52.40;;;29.80;;
35306;SDS011;21420;52.196;21.416;2023-11-19T06:47:45;62.20;;;39.60;;
35306;SDS011;21420;52.196;21.416;2023-11-19T06:50:12;63.40;;;36.80;;
35306;SDS011;21420;52.196;21.416;2023-11-19T06:52:39;117.40;;;73.90;;
35306;SDS011;21420;52.196;21.416;2023-11-19T06:55:06;105.30;;;71.70;;
35306;SDS011;21420;52.196;21.416;2023-11-19T06:57:35;58.00;;;36.10;;
35306;SDS011;21420;52.196;21.416;2023-11-19T07:00:02;66.40;;;43.10;;
35306;SDS011;21420;52.196;21.416;2023-11-19T07:02:29;64.70;;;41.80;;
35306;SDS011;21420;52.196;21.416;2023-11-19T07:04:57;58.20;;;39.50;;
35306;SDS011;21420;52.196;21.416;2023-11-19T07:07:23;81.60;;;54.80;;
35306;SDS011;21420;52.196;21.416;2023-11-19T07:09:50;45.50;;;27.30;;
35306;SDS011;21420;52.196;21.416;2023-11-19T07:12:17;38.40;;;22.50;;
35306;SDS011;21420;52.196;21.416;2023-11-19T07:14:44;38.80;;;24.50;;
35306;SDS011;21420;52.196;21.416;2023-11-19T07:17:10;43.80;;;25.70;;
35306;SDS011;21420;52.196;21.416;2023-11-19T07:19:37;40.30;;;26.00;;
35306;SDS011;21420;52.196;21.416;2023-11-19T07:22:05;86.00;;;58.70;;
35306;SDS011;21420;52.196;21.416;2023-11-19T07:24:33;59.50;;;40.50;;
35306;SDS011;21420;52.196;21.416;2023-11-19T07:27:00;36.10;;;23.80;;
35306;SDS011;21420;52.196;21.416;2023-11-19T07:29:27;42.20;;;28.80;;
35306;SDS011;21420;52.196;21.416;2023-11-19T07:31:55;40.00;;;24.80;;
35306;SDS011;21420;52.196;21.416;2023-11-19T07:34:24;60.90;;;42.30;;
35306;SDS011;21420;52.196;21.416;2023-11-19T07:36:51;32.20;;;19.60;;
35306;SDS011;21420;52.196;21.416;2023-11-19T07:39:19;36.50;;;22.00;;
35306;SDS011;21420;52.196;21.416;2023-11-19T07:41:47;34.50;;;21.50;;
35306;SDS011;21420;52.196;21.416;2023-11-19T07:44:14;41.40;;;26.60;;
35306;SDS011;21420;52.196;21.416;2023-11-19T07:46:41;37.40;;;24.40;;
35306;SDS011;21420;52.196;21.416;2023-11-19T07:49:09;46.30;;;35.60;;
35306;SDS011;21420;52.196;21.416;2023-11-19T07:51:36;31.70;;;22.20;;
35306;SDS011;21420;52.196;21.416;2023-11-19T07:54:03;33.20;;;22.50;;
35306;SDS011;21420;52.196;21.416;2023-11-19T07:56:31;31.90;;;21.50;;
35306;SDS011;21420;52.196;21.416;2023-11-19T07:58:58;29.70;;;19.30;;
35306;SDS011;21420;52.196;21.416;2023-11-19T08:01:25;31.70;;;21.00;;
35306;SDS011;21420;52.196;21.416;2023-11-19T08:03:52;33.20;;;20.10;;
35306;SDS011;21420;52.196;21.416;2023-11-19T08:06:21;32.90;;;22.50;;
35306;SDS011;21420;52.196;21.416;2023-11-19T08:08:48;77.10;;;48.50;;
35306;SDS011;21420;52.196;21.416;2023-11-19T08:11:15;59.20;;;38.20;;
35306;SDS011;21420;52.196;21.416;2023-11-19T08:13:41;55.70;;;34.70;;
35306;SDS011;21420;52.196;21.416;2023-11-19T08:16:09;70.00;;;44.20;;
35306;SDS011;21420;52.196;21.416;2023-11-19T08:18:36;68.30;;;45.80;;
35306;SDS011;21420;52.196;21.416;2023-11-19T08:21:03;39.50;;;28.50;;
35306;SDS011;21420;52.196;21.416;2023-11-19T08:23:31;31.10;;;20.80;;
35306;SDS011;21420;52.196;21.416;2023-11-19T08:25:58;57.80;;;40.10;;
35306;SDS011;21420;52.196;21.416;2023-11-19T08:28:24;42.20;;;25.50;;
35306;SDS011;21420;52.196;21.416;2023-11-19T08:30:51;37.70;;;25.70;;
35306;SDS011;21420;52.196;21.416;2023-11-19T08:33:18;42.10;;;31.30;;
35306;SDS011;21420;52.196;21.416;2023-11-19T08:35:45;39.90;;;29.40;;
35306;SDS011;21420;52.196;21.416;2023-11-19T08:38:13;46.60;;;33.50;;
35306;SDS011;21420;52.196;21.416;2023-11-19T08:40:40;34.40;;;23.50;;
35306;SDS011;21420;52.196;21.416;2023-11-19T08:43:08;40.70;;;29.80;;
35306;SDS011;21420;52.196;21.416;2023-11-19T08:45:35;33.40;;;24.00;;
35306;SDS011;21420;52.196;21.416;2023-11-19T08:48:02;36.10;;;25.00;;
35306;SDS011;21420;52.196;21.416;2023-11-19T08:50:29;34.90;;;24.00;;
35306;SDS011;21420;52.196;21.416;2023-11-19T08:52:56;37.30;;;23.50;;
35306;SDS011;21420;52.196;21.416;2023-11-19T08:55:23;38.30;;;26.90;;
35306;SDS011;21420;52.196;21.416;2023-11-19T08:57:49;31.40;;;21.90;;
35306;SDS011;21420;52.196;21.416;2023-11-19T09:00:16;34.70;;;24.70;;
35306;SDS011;21420;52.196;21.416;2023-11-19T09:02:44;33.90;;;23.90;;
35306;SDS011;21420;52.196;21.416;2023-11-19T09:05:11;35.60;;;24.70;;
35306;SDS011;21420;52.196;21.416;2023-11-19T09:07:39;47.60;;;35.40;;
35306;SDS011;21420;52.196;21.416;2023-11-19T09:10:06;33.60;;;23.90;;
35306;SDS011;21420;52.196;21.416;2023-11-19T09:12:35;31.80;;;21.80;;
35306;SDS011;21420;52.196;21.416;2023-11-19T09:15:01;35.30;;;24.50;;
35306;SDS011;21420;52.196;21.416;2023-11-19T09:17:29;31.30;;;22.50;;
35306;SDS011;21420;52.196;21.416;2023-11-19T09:19:56;50.70;;;37.20;;
35306;SDS011;21420;52.196;21.416;2023-11-19T09:22:22;34.20;;;22.80;;
35306;SDS011;21420;52.196;21.416;2023-11-19T09:24:49;33.80;;;23.50;;
35306;SDS011;21420;52.196;21.416;2023-11-19T09:27:16;34.40;;;22.60;;
35306;SDS011;21420;52.196;21.416;2023-11-19T09:29:43;40.70;;;26.70;;
35306;SDS011;21420;52.196;21.416;2023-11-19T09:32:12;31.60;;;21.10;;
35306;SDS011;21420;52.196;21.416;2023-11-19T09:34:39;42.40;;;29.50;;
35306;SDS011;21420;52.196;21.416;2023-11-19T09:37:05;37.50;;;23.00;;
35306;SDS011;21420;52.196;21.416;2023-11-19T09:39:47;31.80;;;20.90;;
35306;SDS011;21420;52.196;21.416;2023-11-19T09:42:14;30.20;;;21.20;;
35306;SDS011;21420;52.196;21.416;2023-11-19T09:44:41;28.00;;;20.20;;
35306;SDS011;21420;52.196;21.416;2023-11-19T09:47:10;34.90;;;23.20;;
35306;SDS011;21420;52.196;21.416;2023-11-19T09:49:39;46.20;;;30.30;;
35306;SDS011;21420;52.196;21.416;2023-11-19T09:52:06;38.40;;;24.80;;
35306;SDS011;21420;52.196;21.416;2023-11-19T09:54:33;31.10;;;21.00;;
35306;SDS011;21420;52.196;21.416;2023-11-19T09:57:00;34.30;;;22.70;;
35306;SDS011;21420;52.196;21.416;2023-11-19T09:59:32;32.40;;;22.10;;
35306;SDS011;21420;52.196;21.416;2023-11-19T10:01:59;36.30;;;23.30;;
35306;SDS011;21420;52.196;21.416;2023-11-19T10:04:27;37.10;;;24.80;;
35306;SDS011;21420;52.196;21.416;2023-11-19T10:06:57;33.70;;;22.20;;
35306;SDS011;21420;52.196;21.416;2023-11-19T10:09:24;33.10;;;22.70;;
35306;SDS011;21420;52.196;21.416;2023-11-19T10:11:50;37.50;;;25.90;;
35306;SDS011;21420;52.196;21.416;2023-11-19T10:14:19;34.30;;;22.90;;
35306;SDS011;21420;52.196;21.416;2023-11-19T10:16:50;30.30;;;22.30;;
35306;SDS011;21420;52.196;21.416;2023-11-19T10:19:19;41.90;;;28.40;;
35306;SDS011;21420;52.196;21.416;2023-11-19T10:21:47;33.90;;;22.00;;
35306;SDS011;21420;52.196;21.416;2023-11-19T10:24:14;41.10;;;26.40;;
35306;SDS011;21420;52.196;21.416;2023-11-19T10:27:01;29.40;;;19.70;;
35306;SDS011;21420;52.196;21.416;2023-11-19T10:29:31;32.50;;;23.30;;
35306;SDS011;21420;52.196;21.416;2023-11-19T10:31:58;29.70;;;19.00;;
35306;SDS011;21420;52.196;21.416;2023-11-19T10:34:45;30.00;;;19.60;;
35306;SDS011;21420;52.196;21.416;2023-11-19T10:37:28;29.90;;;20.40;;
35306;SDS011;21420;52.196;21.416;2023-11-19T10:39:58;30.40;;;19.40;;
35306;SDS011;21420;52.196;21.416;2023-11-19T10:42:25;35.30;;;22.10;;
35306;SDS011;21420;52.196;21.416;2023-11-19T10:44:51;32.10;;;21.00;;
35306;SDS011;21420;52.196;21.416;2023-11-19T10:47:19;28.80;;;19.40;;
35306;SDS011;21420;52.196;21.416;2023-11-19T10:50:04;28.90;;;19.90;;
35306;SDS011;21420;52.196;21.416;2023-11-19T10:52:32;32.40;;;21.20;;
35306;SDS011;21420;52.196;21.416;2023-11-19T10:55:00;27.30;;;20.60;;
35306;SDS011;21420;52.196;21.416;2023-11-19T10:57:28;29.00;;;20.50;;
35306;SDS011;21420;52.196;21.416;2023-11-19T11:00:00;31.50;;;21.80;;
35306;SDS011;21420;52.196;21.416;2023-11-19T11:02:28;31.70;;;21.80;;
35306;SDS011;21420;52.196;21.416;2023-11-19T11:05:02;30.50;;;21.50;;
35306;SDS011;21420;52.196;21.416;2023-11-19T11:07:30;31.90;;;22.40;;
35306;SDS011;21420;52.196;21.416;2023-11-19T11:10:07;51.50;;;32.80;;
35306;SDS011;21420;52.196;21.416;2023-11-19T11:12:36;138.40;;;66.20;;
35306;SDS011;21420;52.196;21.416;2023-11-19T11:15:08;219.80;;;102.10;;
35306;SDS011;21420;52.196;21.416;2023-11-19T11:17:40;243.80;;;119.60;;
35306;SDS011;21420;52.196;21.416;2023-11-19T11:20:10;214.00;;;108.00;;
35306;SDS011;21420;52.196;21.416;2023-11-19T11:22:46;162.30;;;100.10;;
35306;SDS011;21420;52.196;21.416;2023-11-19T11:25:32;57.70;;;41.00;;
35306;SDS011;21420;52.196;21.416;2023-11-19T11:28:32;58.30;;;38.30;;
35306;SDS011;21420;52.196;21.416;2023-11-19T11:31:15;61.90;;;41.80;;
35306;SDS011;21420;52.196;21.416;2023-11-19T11:36:30;35.60;;;25.90;;
35306;SDS011;21420;52.196;21.416;2023-11-19T11:39:00;44.50;;;31.70;;
35306;SDS011;21420;52.196;21.416;2023-11-19T11:41:28;40.40;;;28.30;;
35306;SDS011;21420;52.196;21.416;2023-11-19T11:43:57;37.40;;;27.20;;
35306;SDS011;21420;52.196;21.416;2023-11-19T11:54:27;32.90;;;25.00;;
35306;SDS011;21420;52.196;21.416;2023-11-19T12:02:09;34.30;;;24.30;;
35306;SDS011;21420;52.196;21.416;2023-11-19T12:04:38;32.20;;;23.70;;
35306;SDS011;21420;52.196;21.416;2023-11-19T12:07:07;40.90;;;25.20;;
35306;SDS011;21420;52.196;21.416;2023-11-19T12:09:42;34.50;;;23.80;;
35306;SDS011;21420;52.196;21.416;2023-11-19T12:20:00;34.80;;;22.50;;
35306;SDS011;21420;52.196;21.416;2023-11-19T12:22:38;35.70;;;23.00;;
35306;SDS011;21420;52.196;21.416;2023-11-19T12:25:06;34.20;;;24.20;;
35306;SDS011;21420;52.196;21.416;2023-11-19T12:27:44;35.50;;;25.40;;
35306;SDS011;21420;52.196;21.416;2023-11-19T12:30:25;36.70;;;25.30;;
35306;SDS011;21420;52.196;21.416;2023-11-19T12:32:53;35.30;;;24.50;;
35306;SDS011;21420;52.196;21.416;2023-11-19T12:35:21;35.80;;;24.80;;
35306;SDS011;21420;52.196;21.416;2023-11-19T12:37:50;41.50;;;29.10;;
35306;SDS011;21420;52.196;21.416;2023-11-19T12:40:21;38.70;;;29.00;;
35306;SDS011;21420;52.196;21.416;2023-11-19T12:42:50;42.10;;;29.80;;
35306;SDS011;21420;52.196;21.416;2023-11-19T12:45:19;44.60;;;29.40;;
35306;SDS011;21420;52.196;21.416;2023-11-19T12:47:47;41.80;;;29.60;;
35306;SDS011;21420;52.196;21.416;2023-11-19T12:50:15;39.00;;;27.30;;
35306;SDS011;21420;52.196;21.416;2023-11-19T12:52:55;40.20;;;28.10;;
35306;SDS011;21420;52.196;21.416;2023-11-19T12:55:24;37.30;;;27.10;;
35306;SDS011;21420;52.196;21.416;2023-11-19T12:57:56;40.10;;;26.80;;
35306;SDS011;21420;52.196;21.416;2023-11-19T13:00:25;38.00;;;27.70;;
35306;SDS011;21420;52.196;21.416;2023-11-19T13:02:53;35.90;;;25.40;;
35306;SDS011;21420;52.196;21.416;2023-11-19T13:07:59;35.30;;;25.70;;
35306;SDS011;21420;52.196;21.416;2023-11-19T13:10:27;28.40;;;22.00;;
35306;SDS011;21420;52.196;21.416;2023-11-19T13:13:04;31.50;;;21.70;;
35306;SDS011;21420;52.196;21.416;2023-11-19T13:15:35;29.70;;;21.60;;
35306;SDS011;21420;52.196;21.416;2023-11-19T13:18:02;28.60;;;19.30;;
35306;SDS011;21420;52.196;21.416;2023-11-19T13:20:29;29.80;;;22.00;;
35306;SDS011;21420;52.196;21.416;2023-11-19T13:23:01;28.80;;;21.30;;
35306;SDS011;21420;52.196;21.416;2023-11-19T13:25:29;34.40;;;21.30;;
35306;SDS011;21420;52.196;21.416;2023-11-19T13:27:57;32.90;;;21.90;;
35306;SDS011;21420;52.196;21.416;2023-11-19T13:30:25;34.00;;;23.50;;
35306;SDS011;21420;52.196;21.416;2023-11-19T13:32:53;33.50;;;21.60;;
35306;SDS011;21420;52.196;21.416;2023-11-19T13:35:22;32.70;;;24.00;;
35306;SDS011;21420;52.196;21.416;2023-11-19T13:37:49;31.20;;;22.20;;
35306;SDS011;21420;52.196;21.416;2023-11-19T13:40:16;32.10;;;22.90;;
35306;SDS011;21420;52.196;21.416;2023-11-19T13:42:43;30.10;;;21.30;;
35306;SDS011;21420;52.196;21.416;2023-11-19T13:45:13;30.90;;;21.30;;
35306;SDS011;21420;52.196;21.416;2023-11-19T13:47:42;30.90;;;21.60;;
35306;SDS011;21420;52.196;21.416;2023-11-19T13:50:13;28.50;;;21.30;;
35306;SDS011;21420;52.196;21.416;2023-11-19T13:52:42;30.30;;;22.90;;
35306;SDS011;21420;52.196;21.416;2023-11-19T13:57:39;36.00;;;23.70;;
35306;SDS011;21420;52.196;21.416;2023-11-19T14:00:10;33.30;;;23.80;;
35306;SDS011;21420;52.196;21.416;2023-11-19T14:02:43;33.80;;;24.10;;
35306;SDS011;21420;52.196;21.416;2023-11-19T14:05:10;26.90;;;20.50;;
35306;SDS011;21420;52.196;21.416;2023-11-19T14:07:38;32.40;;;21.60;;
35306;SDS011;21420;52.196;21.416;2023-11-19T14:10:06;34.60;;;24.40;;
35306;SDS011;21420;52.196;21.416;2023-11-19T14:12:35;34.10;;;24.00;;
35306;SDS011;21420;52.196;21.416;2023-11-19T14:15:07;34.10;;;24.50;;
35306;SDS011;21420;52.196;21.416;2023-11-19T14:17:41;32.60;;;22.50;;
35306;SDS011;21420;52.196;21.416;2023-11-19T14:20:07;34.10;;;22.90;;
35306;SDS011;21420;52.196;21.416;2023-11-19T14:22:40;32.70;;;23.70;;
35306;SDS011;21420;52.196;21.416;2023-11-19T14:25:07;34.80;;;25.40;;
35306;SDS011;21420;52.196;21.416;2023-11-19T14:27:37;34.40;;;26.80;;
35306;SDS011;21420;52.196;21.416;2023-11-19T14:30:05;35.00;;;23.50;;
35306;SDS011;21420;52.196;21.416;2023-11-19T14:32:35;31.90;;;23.60;;
35306;SDS011;21420;52.196;21.416;2023-11-19T14:35:03;29.60;;;22.70;;
35306;SDS011;21420;52.196;21.416;2023-11-19T14:37:30;36.50;;;24.40;;
35306;SDS011;21420;52.196;21.416;2023-11-19T14:40:00;37.40;;;25.90;;
35306;SDS011;21420;52.196;21.416;2023-11-19T14:42:29;38.30;;;26.70;;
35306;SDS011;21420;52.196;21.416;2023-11-19T14:44:55;34.70;;;24.30;;
35306;SDS011;21420;52.196;21.416;2023-11-19T14:47:22;34.50;;;24.80;;
35306;SDS011;21420;52.196;21.416;2023-11-19T14:49:49;35.40;;;25.20;;